Check out our new PWSWeather beta!
PWSweather.com
Personal Weather Stations
Station Observations

MakarauRodneyNZ

Lat: -36.52421, Lon: 174.47572

Elevation: 606

Station Type: Davis VP2

http://kaiparaweather.dynu.net/index.php

High Low Average
Temperature 75.4°F24.1°F 63.5°F17.5°F 68.7°F20.4°F
Dew Point 69.5°F20.8°F 60.0°F15.6°F 65.0°F18.3°F
Winds 11.5 mph -18.5 mph - Calm Calm 2.9 mph 4.7 mph
Wind Gusts 18.4 mph29.6 mph -- 5.1 mph8.2 mph
Humidity 95% 78% 88%
Pressure 29.98 in1015.20 in 29.87 in1011.50 in -
Precipitation 1.55 in39.40 in - -
Hour Temp Dew Point Humidity Winds Wind Gusts Pressure Precip Precip Rate Daily Precip Total
12:00 AM 68.5°F20.3°C 63.1°F17.3°C 83% Calm Calm -- 29.93 in1013.5 mb - 0.00 in0.0 mm 0.00 in0.0 mm
12:10 AM 68.1°F20.1°C 62.7°F17.1°C 83% Calm Calm -- 29.92 in1013.2 mb - 0.00 in0.0 mm 0.00 in0.0 mm
12:20 AM 67.8°F19.9°C 62.4°F16.9°C 83% 1.2 mph NE1.9 kmh NE 2.3 mph3.7 kmh 29.92 in1013.2 mb - 0.00 in0.0 mm 0.00 in0.0 mm
12:30 AM 67.4°F19.7°C 62.4°F16.9°C 84% Calm Calm 2.3 mph3.7 kmh 29.92 in1013.2 mb - 0.00 in0.0 mm 0.00 in0.0 mm
12:40 AM 67.1°F19.5°C 62.4°F16.9°C 85% 1.2 mph NE1.9 kmh NE 3.5 mph5.6 kmh 29.91 in1012.9 mb - 0.00 in0.0 mm 0.00 in0.0 mm
12:50 AM 66.9°F19.4°C 62.6°F17.0°C 86% 1.2 mph NE1.9 kmh NE 3.5 mph5.6 kmh 29.91 in1012.9 mb - 0.00 in0.0 mm 0.00 in0.0 mm
01:00 AM 66.7°F19.3°C 62.4°F16.9°C 86% Calm Calm -- 29.91 in1012.9 mb - 0.00 in0.0 mm 0.00 in0.0 mm
01:10 AM 66.5°F19.2°C 62.5°F16.9°C 87% 2.3 mph NE3.7 kmh NE 3.5 mph5.6 kmh 29.91 in1012.9 mb - 0.00 in0.0 mm 0.00 in0.0 mm
01:20 AM 66.4°F19.1°C 62.4°F16.9°C 87% 1.2 mph NE1.9 kmh NE 2.3 mph3.7 kmh 29.90 in1012.5 mb - 0.00 in0.0 mm 0.00 in0.0 mm
01:30 AM 66.3°F19.1°C 62.7°F17.1°C 88% Calm Calm 2.3 mph3.7 kmh 29.90 in1012.5 mb - 0.00 in0.0 mm 0.00 in0.0 mm
01:40 AM 66.3°F19.1°C 62.3°F16.8°C 87% Calm Calm -- 29.90 in1012.5 mb - 0.00 in0.0 mm 0.00 in0.0 mm
01:50 AM 66.2°F19.0°C 62.5°F16.9°C 88% Calm Calm -- 29.90 in1012.5 mb - 0.00 in0.0 mm 0.00 in0.0 mm
02:00 AM 66.2°F19.0°C 62.5°F16.9°C 88% Calm Calm -- 29.90 in1012.5 mb - 0.00 in0.0 mm 0.00 in0.0 mm
02:10 AM 66.1°F18.9°C 62.8°F17.1°C 89% Calm Calm -- 29.90 in1012.5 mb - 0.00 in0.0 mm 0.00 in0.0 mm
02:20 AM 66.1°F18.9°C 62.8°F17.1°C 89% Calm Calm 2.3 mph3.7 kmh 29.90 in1012.5 mb - 0.00 in0.0 mm 0.00 in0.0 mm
02:30 AM 66.3°F19.1°C 62.9°F17.2°C 89% 1.2 mph NNE1.9 kmh NNE 3.5 mph5.6 kmh 29.90 in1012.5 mb - 0.00 in0.0 mm 0.00 in0.0 mm
02:40 AM 66.3°F19.1°C 63.0°F17.2°C 89% Calm Calm -- 29.90 in1012.5 mb - 0.00 in0.0 mm 0.00 in0.0 mm
02:50 AM 66.3°F19.1°C 63.0°F17.2°C 89% Calm Calm -- 29.89 in1012.2 mb - 0.00 in0.0 mm 0.00 in0.0 mm
03:00 AM 66.3°F19.1°C 63.0°F17.2°C 89% 1.2 mph N1.9 kmh N 1.2 mph1.9 kmh 29.90 in1012.5 mb - 0.00 in0.0 mm 0.00 in0.0 mm
03:10 AM 66.5°F19.2°C 63.1°F17.3°C 89% Calm Calm -- 29.89 in1012.2 mb - 0.00 in0.0 mm 0.00 in0.0 mm
03:20 AM 66.6°F19.2°C 63.3°F17.4°C 89% Calm Calm -- 29.89 in1012.2 mb - 0.00 in0.0 mm 0.00 in0.0 mm
03:30 AM 67.0°F19.4°C 63.3°F17.4°C 88% Calm Calm 2.3 mph3.7 kmh 29.89 in1012.2 mb - 0.00 in0.0 mm 0.00 in0.0 mm
03:40 AM 67.3°F19.6°C 63.6°F17.6°C 88% 1.2 mph NE1.9 kmh NE 2.3 mph3.7 kmh 29.89 in1012.2 mb - 0.00 in0.0 mm 0.00 in0.0 mm
03:50 AM 67.5°F19.7°C 63.5°F17.5°C 87% 1.2 mph NNE1.9 kmh NNE 2.3 mph3.7 kmh 29.89 in1012.2 mb - 0.00 in0.0 mm 0.00 in0.0 mm
04:00 AM 67.6°F19.8°C 63.6°F17.6°C 87% 2.3 mph N3.7 kmh N 6.9 mph11.1 kmh 29.88 in1011.9 mb - 0.00 in0.0 mm 0.00 in0.0 mm
04:10 AM 67.9°F19.9°C 63.5°F17.5°C 86% 1.2 mph NNE1.9 kmh NNE 1.2 mph1.9 kmh 29.88 in1011.9 mb - 0.00 in0.0 mm 0.00 in0.0 mm
04:20 AM 68.0°F20.0°C 63.7°F17.6°C 86% Calm Calm 1.2 mph1.9 kmh 29.88 in1011.9 mb - 0.00 in0.0 mm 0.00 in0.0 mm
04:30 AM 68.2°F20.1°C 63.9°F17.7°C 86% 2.3 mph NE3.7 kmh NE 6.9 mph11.1 kmh 29.87 in1011.5 mb - 0.00 in0.0 mm 0.00 in0.0 mm
04:40 AM 68.3°F20.2°C 63.9°F17.7°C 86% 1.2 mph NE1.9 kmh NE 3.5 mph5.6 kmh 29.88 in1011.9 mb - 0.00 in0.0 mm 0.00 in0.0 mm
04:50 AM 68.4°F20.2°C 64.0°F17.8°C 86% 1.2 mph NE1.9 kmh NE 2.3 mph3.7 kmh 29.88 in1011.9 mb - 0.00 in0.0 mm 0.00 in0.0 mm
05:00 AM 68.4°F20.2°C 64.7°F18.2°C 88% 1.2 mph NNE1.9 kmh NNE 2.3 mph3.7 kmh 29.87 in1011.5 mb - 0.00 in0.0 mm 0.00 in0.0 mm
05:10 AM 68.1°F20.1°C 64.7°F18.2°C 89% Calm Calm -- 29.87 in1011.5 mb - 0.00 in0.0 mm 0.00 in0.0 mm
05:20 AM 67.5°F19.7°C 64.5°F18.1°C 90% 1.2 mph NNE1.9 kmh NNE 4.6 mph7.4 kmh 29.87 in1011.5 mb - 0.01 in0.3 mm 0.01 in0.3 mm
05:30 AM 67.3°F19.6°C 64.6°F18.1°C 91% 1.2 mph NE1.9 kmh NE 2.3 mph3.7 kmh 29.87 in1011.5 mb - 0.01 in0.3 mm 0.01 in0.3 mm
05:40 AM 67.3°F19.6°C 64.9°F18.3°C 92% Calm Calm -- 29.87 in1011.5 mb - 0.01 in0.3 mm 0.01 in0.3 mm
05:50 AM 67.2°F19.6°C 64.8°F18.2°C 92% 1.2 mph NE1.9 kmh NE 2.3 mph3.7 kmh 29.87 in1011.5 mb - 0.01 in0.3 mm 0.01 in0.3 mm
06:00 AM 67.1°F19.5°C 64.7°F18.2°C 92% 2.3 mph NE3.7 kmh NE 5.8 mph9.3 kmh 29.87 in1011.5 mb - 0.01 in0.3 mm 0.01 in0.3 mm
06:10 AM 67.1°F19.5°C 65.0°F18.3°C 93% 2.3 mph NNE3.7 kmh NNE 2.3 mph3.7 kmh 29.88 in1011.9 mb - 0.01 in0.3 mm 0.01 in0.3 mm
06:20 AM 67.3°F19.6°C 65.2°F18.4°C 93% Calm Calm 1.2 mph1.9 kmh 29.88 in1011.9 mb - 0.01 in0.3 mm 0.01 in0.3 mm
06:30 AM 67.4°F19.7°C 65.3°F18.5°C 93% Calm Calm 1.2 mph1.9 kmh 29.88 in1011.9 mb - 0.00 in0.0 mm 0.01 in0.3 mm
06:40 AM 67.6°F19.8°C 65.5°F18.6°C 93% Calm Calm 1.2 mph1.9 kmh 29.89 in1012.2 mb - 0.00 in0.0 mm 0.01 in0.3 mm
06:50 AM 67.9°F19.9°C 65.5°F18.6°C 92% 1.2 mph NNE1.9 kmh NNE 1.2 mph1.9 kmh 29.89 in1012.2 mb - 0.00 in0.0 mm 0.01 in0.3 mm
07:00 AM 68.1°F20.1°C 65.7°F18.7°C 92% 1.2 mph NE1.9 kmh NE 2.3 mph3.7 kmh 29.89 in1012.2 mb - 0.00 in0.0 mm 0.01 in0.3 mm
07:10 AM 68.3°F20.2°C 65.9°F18.8°C 92% 2.3 mph NNE3.7 kmh NNE 4.6 mph7.4 kmh 29.89 in1012.2 mb - 0.00 in0.0 mm 0.01 in0.3 mm
07:20 AM 68.4°F20.2°C 66.0°F18.9°C 92% 2.3 mph N3.7 kmh N 2.3 mph3.7 kmh 29.89 in1012.2 mb - 0.00 in0.0 mm 0.01 in0.3 mm
07:30 AM 68.4°F20.2°C 66.3°F19.1°C 93% 2.3 mph NNE3.7 kmh NNE 3.5 mph5.6 kmh 29.89 in1012.2 mb - 0.00 in0.0 mm 0.01 in0.3 mm
07:40 AM 68.5°F20.3°C 66.4°F19.1°C 93% Calm Calm 1.2 mph1.9 kmh 29.89 in1012.2 mb - 0.01 in0.3 mm 0.02 in0.5 mm
07:50 AM 69.1°F20.6°C 67.3°F19.6°C 94% 1.2 mph N1.9 kmh N 1.2 mph1.9 kmh 29.89 in1012.2 mb - 0.01 in0.3 mm 0.02 in0.5 mm
08:00 AM 69.7°F20.9°C 67.9°F19.9°C 94% 1.2 mph N1.9 kmh N 3.5 mph5.6 kmh 29.89 in1012.2 mb - 0.01 in0.3 mm 0.02 in0.5 mm
08:10 AM 69.9°F21.1°C 67.8°F19.9°C 93% 2.3 mph N3.7 kmh N 3.5 mph5.6 kmh 29.89 in1012.2 mb - 0.01 in0.3 mm 0.02 in0.5 mm
08:20 AM 70.3°F21.3°C 68.2°F20.1°C 93% 2.3 mph NW3.7 kmh NW 3.5 mph5.6 kmh 29.89 in1012.2 mb - 0.02 in0.5 mm 0.02 in0.5 mm
08:30 AM 71.0°F21.7°C 68.6°F20.3°C 92% Calm Calm -- 29.89 in1012.2 mb - 0.02 in0.5 mm 0.02 in0.5 mm
08:40 AM 71.6°F22.0°C 68.5°F20.3°C 90% Calm Calm 3.5 mph5.6 kmh 29.89 in1012.2 mb - 0.01 in0.3 mm 0.02 in0.5 mm
08:50 AM 72.0°F22.2°C 68.6°F20.3°C 89% 2.3 mph NE3.7 kmh NE 6.9 mph11.1 kmh 29.90 in1012.5 mb - 0.01 in0.3 mm 0.02 in0.5 mm
09:00 AM 72.1°F22.3°C 69.0°F20.6°C 90% 1.2 mph NNE1.9 kmh NNE 3.5 mph5.6 kmh 29.90 in1012.5 mb - 0.01 in0.3 mm 0.02 in0.5 mm
09:10 AM 72.5°F22.5°C 69.4°F20.8°C 90% 1.2 mph NW1.9 kmh NW 2.3 mph3.7 kmh 29.90 in1012.5 mb - 0.01 in0.3 mm 0.02 in0.5 mm
09:20 AM 73.0°F22.8°C 68.6°F20.3°C 86% Calm Calm -- 29.90 in1012.5 mb - 0.00 in0.0 mm 0.02 in0.5 mm
09:30 AM 73.7°F23.2°C 68.5°F20.3°C 84% 1.2 mph N1.9 kmh N 3.5 mph5.6 kmh 29.90 in1012.5 mb - 0.00 in0.0 mm 0.02 in0.5 mm
09:40 AM 73.5°F23.1°C 68.3°F20.2°C 84% 1.2 mph N1.9 kmh N 3.5 mph5.6 kmh 29.90 in1012.5 mb - 0.00 in0.0 mm 0.02 in0.5 mm
09:50 AM 73.2°F22.9°C 68.0°F20.0°C 84% Calm Calm -- 29.90 in1012.5 mb - 0.00 in0.0 mm 0.02 in0.5 mm
10:00 AM 72.7°F22.6°C 68.6°F20.3°C 87% Calm Calm -- 29.90 in1012.5 mb - 0.00 in0.0 mm 0.02 in0.5 mm
10:10 AM 72.5°F22.5°C 69.1°F20.6°C 89% Calm Calm -- 29.90 in1012.5 mb - 0.00 in0.0 mm 0.02 in0.5 mm
10:20 AM 72.3°F22.4°C 68.9°F20.5°C 89% 1.2 mph NNE1.9 kmh NNE 2.3 mph3.7 kmh 29.90 in1012.5 mb - 0.00 in0.0 mm 0.02 in0.5 mm
10:30 AM 72.1°F22.3°C 69.0°F20.6°C 90% Calm Calm -- 29.90 in1012.5 mb - 0.01 in0.3 mm 0.03 in0.8 mm
10:40 AM 72.1°F22.3°C 69.3°F20.7°C 91% Calm Calm 3.5 mph5.6 kmh 29.90 in1012.5 mb - 0.01 in0.3 mm 0.03 in0.8 mm
10:50 AM 72.1°F22.3°C 69.0°F20.6°C 90% 1.2 mph NE1.9 kmh NE 1.2 mph1.9 kmh 29.90 in1012.5 mb - 0.02 in0.5 mm 0.04 in1.0 mm
11:00 AM 72.0°F22.2°C 69.2°F20.7°C 91% 1.2 mph NNE1.9 kmh NNE 3.5 mph5.6 kmh 29.90 in1012.5 mb - 0.02 in0.5 mm 0.04 in1.0 mm
11:10 AM 71.4°F21.9°C 68.3°F20.2°C 90% 4.6 mph SW7.4 kmh SW 6.9 mph11.1 kmh 29.90 in1012.5 mb - 0.02 in0.5 mm 0.04 in1.0 mm
11:20 AM 70.0°F21.1°C 67.3°F19.6°C 91% 4.6 mph NW7.4 kmh NW 12.7 mph20.4 kmh 29.90 in1012.5 mb - 0.02 in0.5 mm 0.04 in1.0 mm
11:30 AM 69.1°F20.6°C 67.0°F19.4°C 93% Calm Calm 1.2 mph1.9 kmh 29.90 in1012.5 mb - 0.02 in0.5 mm 0.05 in1.3 mm
11:40 AM 69.0°F20.6°C 67.2°F19.6°C 94% 1.2 mph NW1.9 kmh NW 3.5 mph5.6 kmh 29.90 in1012.5 mb - 0.02 in0.5 mm 0.06 in1.5 mm
11:50 AM 69.3°F20.7°C 67.8°F19.9°C 95% 1.2 mph NW1.9 kmh NW 3.5 mph5.6 kmh 29.89 in1012.2 mb - 0.02 in0.5 mm 0.06 in1.5 mm
12:00 PM 69.4°F20.8°C 67.9°F19.9°C 95% 6.9 mph SW11.1 kmh SW 9.2 mph14.8 kmh 29.89 in1012.2 mb - 0.02 in0.5 mm 0.06 in1.5 mm
12:10 PM 70.0°F21.1°C 68.5°F20.3°C 95% 5.8 mph W9.3 kmh W 8.1 mph13.0 kmh 29.89 in1012.2 mb - 0.03 in0.8 mm 0.07 in1.8 mm
12:20 PM 70.7°F21.5°C 68.9°F20.5°C 94% 3.5 mph W5.6 kmh W 8.1 mph13.0 kmh 29.89 in1012.2 mb - 0.03 in0.8 mm 0.07 in1.8 mm
12:30 PM 71.2°F21.8°C 69.1°F20.6°C 93% 5.8 mph WSW9.3 kmh WSW 4.6 mph7.4 kmh 29.89 in1012.2 mb - 0.03 in0.8 mm 0.08 in2.0 mm
12:40 PM 71.3°F21.8°C 68.9°F20.5°C 92% 5.8 mph W9.3 kmh W 11.5 mph18.5 kmh 29.89 in1012.2 mb - 0.03 in0.8 mm 0.09 in2.3 mm
12:50 PM 71.0°F21.7°C 67.9°F19.9°C 90% 4.6 mph W7.4 kmh W 10.4 mph16.7 kmh 29.89 in1012.2 mb - 0.03 in0.8 mm 0.09 in2.3 mm
01:00 PM 71.6°F22.0°C 68.5°F20.3°C 90% 3.5 mph WSW5.6 kmh WSW 10.4 mph16.7 kmh 29.89 in1012.2 mb - 0.03 in0.8 mm 0.09 in2.3 mm
01:10 PM 72.6°F22.6°C 69.5°F20.8°C 90% 4.6 mph WSW7.4 kmh WSW 11.5 mph18.5 kmh 29.89 in1012.2 mb - 0.02 in0.5 mm 0.09 in2.3 mm
01:20 PM 74.0°F23.3°C 69.5°F20.8°C 86% 4.6 mph WSW7.4 kmh WSW 8.1 mph13.0 kmh 29.88 in1011.9 mb - 0.03 in0.8 mm 0.10 in2.5 mm
01:30 PM 74.1°F23.4°C 68.9°F20.5°C 84% 3.5 mph W5.6 kmh W 8.1 mph13.0 kmh 29.89 in1012.2 mb - 0.02 in0.5 mm 0.10 in2.5 mm
01:40 PM 73.4°F23.0°C 68.6°F20.3°C 85% 6.9 mph W11.1 kmh W 16.1 mph25.9 kmh 29.89 in1012.2 mb - 0.02 in0.5 mm 0.11 in2.8 mm
01:50 PM 73.2°F22.9°C 69.1°F20.6°C 87% 8.1 mph WSW13.0 kmh WSW 11.5 mph18.5 kmh 29.89 in1012.2 mb - 0.03 in0.8 mm 0.12 in3.0 mm
02:00 PM 73.2°F22.9°C 68.4°F20.2°C 85% 8.1 mph WNW13.0 kmh WNW 10.4 mph16.7 kmh 29.89 in1012.2 mb - 0.02 in0.5 mm 0.12 in3.0 mm
02:10 PM 73.3°F22.9°C 67.5°F19.7°C 82% 9.2 mph WSW14.8 kmh WSW 11.5 mph18.5 kmh 29.89 in1012.2 mb - 0.02 in0.5 mm 0.12 in3.0 mm
02:20 PM 74.1°F23.4°C 68.3°F20.2°C 82% 4.6 mph WSW7.4 kmh WSW 10.4 mph16.7 kmh 29.89 in1012.2 mb - 0.02 in0.5 mm 0.13 in3.3 mm
02:30 PM 74.5°F23.6°C 67.6°F19.8°C 79% 6.9 mph WSW11.1 kmh WSW 8.1 mph13.0 kmh 29.89 in1012.2 mb - 0.03 in0.8 mm 0.13 in3.3 mm
02:40 PM 74.5°F23.6°C 69.0°F20.6°C 83% 6.9 mph WSW11.1 kmh WSW 15.0 mph24.1 kmh 29.88 in1011.9 mb - 0.02 in0.5 mm 0.13 in3.3 mm
02:50 PM 75.2°F24.0°C 67.9°F19.9°C 78% 6.9 mph WSW11.1 kmh WSW 13.8 mph22.2 kmh 29.88 in1011.9 mb - 0.02 in0.5 mm 0.13 in3.3 mm
03:00 PM 75.2°F24.0°C 67.9°F19.9°C 78% 11.5 mph WSW18.5 kmh WSW 18.4 mph29.6 kmh 29.87 in1011.5 mb - 0.02 in0.5 mm 0.14 in3.6 mm
03:10 PM 75.4°F24.1°C 68.1°F20.1°C 78% 11.5 mph SW18.5 kmh SW 13.8 mph22.2 kmh 29.87 in1011.5 mb - 0.02 in0.5 mm 0.14 in3.6 mm
03:20 PM 74.8°F23.8°C 67.5°F19.7°C 78% 4.6 mph SW7.4 kmh SW 13.8 mph22.2 kmh 29.87 in1011.5 mb - 0.02 in0.5 mm 0.15 in3.8 mm
03:30 PM 73.8°F23.2°C 67.6°F19.8°C 81% 5.8 mph SW9.3 kmh SW 6.9 mph11.1 kmh 29.87 in1011.5 mb - 0.02 in0.5 mm 0.15 in3.8 mm
03:40 PM 72.5°F22.5°C 67.1°F19.5°C 83% 2.3 mph SW3.7 kmh SW 10.4 mph16.7 kmh 29.88 in1011.9 mb - 0.02 in0.5 mm 0.16 in4.1 mm
03:50 PM 71.9°F22.2°C 67.8°F19.9°C 87% 3.5 mph SW5.6 kmh SW 3.5 mph5.6 kmh 29.88 in1011.9 mb - 0.02 in0.5 mm 0.16 in4.1 mm
04:00 PM 71.5°F21.9°C 67.5°F19.7°C 87% 2.3 mph SW3.7 kmh SW 3.5 mph5.6 kmh 29.88 in1011.9 mb - 0.02 in0.5 mm 0.16 in4.1 mm
04:10 PM 70.8°F21.6°C 67.1°F19.5°C 88% 2.3 mph SW3.7 kmh SW 6.9 mph11.1 kmh 29.88 in1011.9 mb - 0.02 in0.5 mm 0.17 in4.3 mm
04:20 PM 69.9°F21.1°C 66.5°F19.2°C 89% 4.6 mph S7.4 kmh S 5.8 mph9.3 kmh 29.88 in1011.9 mb - 0.02 in0.5 mm 0.17 in4.3 mm
04:30 PM 69.1°F20.6°C 66.1°F18.9°C 90% 8.1 mph SW13.0 kmh SW 11.5 mph18.5 kmh 29.88 in1011.9 mb - 0.02 in0.5 mm 0.17 in4.3 mm
04:40 PM 68.8°F20.4°C 65.7°F18.7°C 90% 6.9 mph SW11.1 kmh SW 9.2 mph14.8 kmh 29.88 in1011.9 mb - 0.02 in0.5 mm 0.17 in4.3 mm
04:50 PM 68.6°F20.3°C 65.2°F18.4°C 89% 5.8 mph SW9.3 kmh SW 10.4 mph16.7 kmh 29.89 in1012.2 mb - 0.02 in0.5 mm 0.17 in4.3 mm
05:00 PM 68.3°F20.2°C 64.9°F18.3°C 89% 10.4 mph SSW16.7 kmh SSW 12.7 mph20.4 kmh 29.89 in1012.2 mb - 0.02 in0.5 mm 0.17 in4.3 mm
05:10 PM 68.1°F20.1°C 65.1°F18.4°C 90% 6.9 mph SSW11.1 kmh SSW 13.8 mph22.2 kmh 29.89 in1012.2 mb - 0.02 in0.5 mm 0.18 in4.6 mm
05:20 PM 67.3°F19.6°C 64.3°F17.9°C 90% 6.9 mph S11.1 kmh S 9.2 mph14.8 kmh 29.90 in1012.5 mb - 0.02 in0.5 mm 0.18 in4.6 mm
05:30 PM 67.3°F19.6°C 64.6°F18.1°C 91% 4.6 mph SW7.4 kmh SW 5.8 mph9.3 kmh 29.90 in1012.5 mb - 0.02 in0.5 mm 0.18 in4.6 mm
05:40 PM 67.4°F19.7°C 64.7°F18.2°C 91% 2.3 mph SSW3.7 kmh SSW 3.5 mph5.6 kmh 29.91 in1012.9 mb - 0.01 in0.3 mm 0.18 in4.6 mm
05:50 PM 67.4°F19.7°C 64.7°F18.2°C 91% 2.3 mph S3.7 kmh S 3.5 mph5.6 kmh 29.90 in1012.5 mb - 0.02 in0.5 mm 0.19 in4.8 mm
06:00 PM 67.1°F19.5°C 64.1°F17.8°C 90% 2.3 mph WSW3.7 kmh WSW 3.5 mph5.6 kmh 29.90 in1012.5 mb - 0.02 in0.5 mm 0.19 in4.8 mm
06:10 PM 67.0°F19.4°C 64.0°F17.8°C 90% 2.3 mph SW3.7 kmh SW 4.6 mph7.4 kmh 29.91 in1012.9 mb - 0.01 in0.3 mm 0.19 in4.8 mm
06:20 PM 66.5°F19.2°C 63.8°F17.7°C 91% 1.2 mph SSW1.9 kmh SSW 3.5 mph5.6 kmh 29.91 in1012.9 mb - 0.01 in0.3 mm 0.19 in4.8 mm
06:30 PM 66.4°F19.1°C 64.0°F17.8°C 92% 2.3 mph S3.7 kmh S 3.5 mph5.6 kmh 29.90 in1012.5 mb - 0.02 in0.5 mm 0.20 in5.1 mm
06:40 PM 66.5°F19.2°C 64.1°F17.8°C 92% 5.8 mph SSW9.3 kmh SSW 6.9 mph11.1 kmh 29.90 in1012.5 mb - 0.02 in0.5 mm 0.20 in5.1 mm
06:50 PM 66.4°F19.1°C 63.4°F17.4°C 90% 3.5 mph S5.6 kmh S 3.5 mph5.6 kmh 29.91 in1012.9 mb - 0.01 in0.3 mm 0.20 in5.1 mm
07:00 PM 66.4°F19.1°C 63.4°F17.4°C 90% 4.6 mph SW7.4 kmh SW 10.4 mph16.7 kmh 29.91 in1012.9 mb - 0.01 in0.3 mm 0.20 in5.1 mm
07:10 PM 66.4°F19.1°C 62.7°F17.1°C 88% 4.6 mph SW7.4 kmh SW 4.6 mph7.4 kmh 29.92 in1013.2 mb - 0.01 in0.3 mm 0.20 in5.1 mm
07:20 PM 66.3°F19.1°C 63.0°F17.2°C 89% 3.5 mph SW5.6 kmh SW 3.5 mph5.6 kmh 29.93 in1013.5 mb - 0.02 in0.5 mm 0.21 in5.3 mm
07:30 PM 66.3°F19.1°C 62.6°F17.0°C 88% 4.6 mph SSW7.4 kmh SSW 8.1 mph13.0 kmh 29.93 in1013.5 mb - 0.01 in0.3 mm 0.21 in5.3 mm
07:40 PM 66.2°F19.0°C 62.9°F17.2°C 89% 2.3 mph SSW3.7 kmh SSW 3.5 mph5.6 kmh 29.93 in1013.5 mb - 0.01 in0.3 mm 0.21 in5.3 mm
07:50 PM 66.1°F18.9°C 62.5°F16.9°C 88% 3.5 mph SW5.6 kmh SW 4.6 mph7.4 kmh 29.93 in1013.5 mb - 0.01 in0.3 mm 0.21 in5.3 mm
08:00 PM 66.3°F19.1°C 62.3°F16.8°C 87% 4.6 mph S7.4 kmh S 6.9 mph11.1 kmh 29.94 in1013.9 mb - 0.01 in0.3 mm 0.21 in5.3 mm
08:10 PM 66.2°F19.0°C 62.3°F16.8°C 87% 3.5 mph SW5.6 kmh SW 8.1 mph13.0 kmh 29.94 in1013.9 mb - 0.02 in0.5 mm 0.21 in5.3 mm
08:20 PM 66.4°F19.1°C 62.1°F16.7°C 86% 2.3 mph S3.7 kmh S 3.5 mph5.6 kmh 29.95 in1014.2 mb - 0.01 in0.3 mm 0.21 in5.3 mm
08:30 PM 66.3°F19.1°C 62.0°F16.7°C 86% 2.3 mph SW3.7 kmh SW 3.5 mph5.6 kmh 29.96 in1014.6 mb - 0.01 in0.3 mm 0.21 in5.3 mm
08:40 PM 66.4°F19.1°C 61.4°F16.3°C 84% 4.6 mph S7.4 kmh S 10.4 mph16.7 kmh 29.96 in1014.6 mb - 0.01 in0.3 mm 0.21 in5.3 mm
08:50 PM 66.6°F19.2°C 61.6°F16.4°C 84% 5.8 mph S9.3 kmh S 10.4 mph16.7 kmh 29.96 in1014.6 mb - 0.01 in0.3 mm 0.21 in5.3 mm
09:00 PM 66.7°F19.3°C 61.0°F16.1°C 82% 8.1 mph SSW13.0 kmh SSW 11.5 mph18.5 kmh 29.96 in1014.6 mb - 0.01 in0.3 mm 0.21 in5.3 mm
09:10 PM 66.5°F19.2°C 61.1°F16.2°C 83% 5.8 mph SW9.3 kmh SW 10.4 mph16.7 kmh 29.96 in1014.6 mb - 0.01 in0.3 mm 0.22 in5.6 mm
09:20 PM 66.0°F18.9°C 60.7°F15.9°C 83% 3.5 mph SW5.6 kmh SW 4.6 mph7.4 kmh 29.96 in1014.6 mb - 0.01 in0.3 mm 0.22 in5.6 mm
09:30 PM 65.6°F18.7°C 60.7°F15.9°C 84% 2.3 mph SSW3.7 kmh SSW 3.5 mph5.6 kmh 29.97 in1014.9 mb - 0.01 in0.3 mm 0.22 in5.6 mm
09:40 PM 65.4°F18.6°C 60.4°F15.8°C 84% 4.6 mph SSW7.4 kmh SSW 5.8 mph9.3 kmh 29.97 in1014.9 mb - 0.01 in0.3 mm 0.22 in5.6 mm
09:50 PM 65.2°F18.4°C 60.2°F15.7°C 84% 4.6 mph SW7.4 kmh SW 5.8 mph9.3 kmh 29.97 in1014.9 mb - 0.01 in0.3 mm 0.22 in5.6 mm
10:00 PM 65.0°F18.3°C 60.0°F15.6°C 84% 2.3 mph SW3.7 kmh SW 3.5 mph5.6 kmh 29.98 in1015.2 mb - 0.02 in0.5 mm 0.23 in5.8 mm
10:10 PM 64.5°F18.1°C 60.2°F15.7°C 86% 2.3 mph SW3.7 kmh SW 3.5 mph5.6 kmh 29.97 in1014.9 mb - 0.01 in0.3 mm 0.23 in5.8 mm
10:20 PM 64.4°F18.0°C 60.1°F15.6°C 86% Calm Calm -- 29.98 in1015.2 mb - 0.01 in0.3 mm 0.23 in5.8 mm
10:30 PM 64.1°F17.8°C 60.2°F15.7°C 87% 1.2 mph SSW1.9 kmh SSW 2.3 mph3.7 kmh 29.97 in1014.9 mb - 0.01 in0.3 mm 0.23 in5.8 mm
10:40 PM 64.4°F18.0°C 60.4°F15.8°C 87% 1.2 mph S1.9 kmh S 3.5 mph5.6 kmh 29.97 in1014.9 mb - 0.01 in0.3 mm 0.23 in5.8 mm
10:50 PM 64.6°F18.1°C 60.6°F15.9°C 87% Calm Calm -- 29.97 in1014.9 mb - 0.01 in0.3 mm 0.23 in5.8 mm
11:00 PM 65.0°F18.3°C 61.7°F16.5°C 89% 6.9 mph SSW11.1 kmh SSW 11.5 mph18.5 kmh 29.97 in1014.9 mb - 0.00 in0.0 mm 1.51 in38.4 mm
11:10 PM 64.8°F18.2°C 61.5°F16.4°C 89% 8.1 mph SW13.0 kmh SW 10.4 mph16.7 kmh 29.97 in1014.9 mb - 0.00 in0.0 mm 1.51 in38.4 mm
11:20 PM 64.4°F18.0°C 61.4°F16.3°C 90% 5.8 mph S9.3 kmh S 10.4 mph16.7 kmh 29.97 in1014.9 mb - 0.01 in0.3 mm 0.01 in0.3 mm
11:30 PM 63.9°F17.7°C 61.2°F16.2°C 91% 6.9 mph SSW11.1 kmh SSW 10.4 mph16.7 kmh 29.97 in1014.9 mb - 0.01 in0.3 mm 0.01 in0.3 mm
11:40 PM 63.6°F17.6°C 61.2°F16.2°C 92% 5.8 mph SSW9.3 kmh SSW 9.2 mph14.8 kmh 29.98 in1015.2 mb - 0.01 in0.3 mm 0.01 in0.3 mm
11:50 PM 63.5°F17.5°C 61.1°F16.2°C 92% 9.2 mph S14.8 kmh S 11.5 mph18.5 kmh 29.98 in1015.2 mb - 0.01 in0.3 mm 0.01 in0.3 mm